createdAt,value
2019-04-05T00:02:16.938Z,2.50
2019-04-05T00:04:44.280Z,3.30
2019-04-05T00:07:11.511Z,3.07
2019-04-05T00:09:38.647Z,2.57
2019-04-05T00:12:05.681Z,2.90
2019-04-05T00:14:32.939Z,2.70
2019-04-05T00:17:00.048Z,3.00
2019-04-05T00:19:27.163Z,2.90
2019-04-05T00:21:54.300Z,3.07
2019-04-05T00:24:21.339Z,3.07
2019-04-05T00:26:48.363Z,2.93
2019-04-05T00:29:15.380Z,2.97
2019-04-05T00:31:42.392Z,2.93
2019-04-05T00:34:09.445Z,2.87
2019-04-05T00:36:36.487Z,2.60
2019-04-05T00:39:04.979Z,3.33
2019-04-05T00:41:33.159Z,3.20
2019-04-05T00:44:00.327Z,3.20
2019-04-05T00:46:27.420Z,3.30
2019-04-05T00:48:54.423Z,3.27
2019-04-05T00:51:21.505Z,2.50
2019-04-05T00:53:48.561Z,2.40
2019-04-05T00:56:15.611Z,3.30
2019-04-05T00:58:42.660Z,2.80
2019-04-05T01:01:09.701Z,3.20
2019-04-05T01:03:36.752Z,2.83
2019-04-05T01:06:03.916Z,2.50
2019-04-05T01:08:30.941Z,2.87
2019-04-05T01:10:57.932Z,3.13
2019-04-05T01:13:25.005Z,3.13
2019-04-05T01:15:52.054Z,3.40
2019-04-05T01:18:19.085Z,3.00
2019-04-05T01:20:47.875Z,3.13
2019-04-05T01:23:15.067Z,2.63
2019-04-05T01:25:42.218Z,2.57
2019-04-05T01:28:09.238Z,2.97
2019-04-05T01:30:36.293Z,2.80
2019-04-05T01:33:03.323Z,2.73
2019-04-05T01:35:30.431Z,2.73
2019-04-05T01:37:57.471Z,3.23
2019-04-05T01:40:24.563Z,2.90
2019-04-05T01:42:51.576Z,2.73
2019-04-05T01:45:18.602Z,3.33
2019-04-05T01:47:45.664Z,3.17
2019-04-05T01:50:12.671Z,2.60
2019-04-05T01:52:39.788Z,2.93
2019-04-05T01:55:06.879Z,2.67
2019-04-05T01:57:33.935Z,2.70
2019-04-05T02:00:01.002Z,3.03
2019-04-05T02:02:28.086Z,2.53
2019-04-05T02:04:55.170Z,2.70
2019-04-05T02:07:22.202Z,2.50
2019-04-05T02:09:49.289Z,3.20
2019-04-05T02:12:16.321Z,3.10
2019-04-05T02:14:43.359Z,3.10
2019-04-05T02:17:10.385Z,3.27
2019-04-05T02:19:37.421Z,2.63
2019-04-05T02:22:04.446Z,2.87
2019-04-05T02:24:31.467Z,2.97
2019-04-05T02:26:58.480Z,3.07
2019-04-05T02:29:25.519Z,2.87
2019-04-05T02:31:52.553Z,2.93
2019-04-05T02:34:19.563Z,2.57
2019-04-05T02:36:46.608Z,2.53
2019-04-05T02:39:13.634Z,2.70
2019-04-05T02:41:40.692Z,3.40
2019-04-05T02:44:07.690Z,2.50
2019-04-05T02:46:34.737Z,2.67
2019-04-05T02:49:01.797Z,3.07
2019-04-05T02:51:28.802Z,3.10
2019-04-05T02:53:55.868Z,3.03
2019-04-05T02:56:22.888Z,2.60
2019-04-05T02:58:50.009Z,2.70
2019-04-05T03:01:17.027Z,3.50
2019-04-05T03:03:44.137Z,2.57
2019-04-05T03:06:11.161Z,3.40
2019-04-05T03:08:38.629Z,3.03
2019-04-05T03:11:09.360Z,2.87
2019-04-05T03:13:37.210Z,3.73
2019-04-05T03:16:06.074Z,2.63
2019-04-05T03:18:33.425Z,2.20
2019-04-05T03:21:02.413Z,3.20
2019-04-05T03:23:29.446Z,3.13
2019-04-05T03:25:56.467Z,3.77
2019-04-05T03:28:23.514Z,2.73
2019-04-05T03:30:50.529Z,3.07
2019-04-05T03:33:17.632Z,4.07
2019-04-05T03:35:44.654Z,3.23
2019-04-05T03:38:11.674Z,2.87
2019-04-05T03:40:38.744Z,3.20
2019-04-05T03:43:05.767Z,4.00
2019-04-05T03:45:32.832Z,3.87
2019-04-05T03:47:59.833Z,3.30
2019-04-05T03:50:26.928Z,3.50
2019-04-05T03:52:53.941Z,4.30
2019-04-05T03:55:20.995Z,3.10
2019-04-05T03:57:48.068Z,3.90
2019-04-05T04:00:15.136Z,4.87
2019-04-05T04:02:42.173Z,4.90
2019-04-05T04:05:09.388Z,4.00
2019-04-05T04:07:36.405Z,5.40
2019-04-05T04:10:03.433Z,3.93
2019-04-05T04:12:30.697Z,4.43
2019-04-05T04:15:14.130Z,4.17
2019-04-05T04:17:41.526Z,4.00
2019-04-05T04:20:11.100Z,5.00
2019-04-05T04:22:40.676Z,4.80
2019-04-05T04:25:07.822Z,4.40
2019-04-05T04:27:37.839Z,5.10
2019-04-05T04:30:05.297Z,6.00
2019-04-05T04:32:32.330Z,5.53
2019-04-05T04:34:59.619Z,4.40
2019-04-05T04:37:26.670Z,3.97
2019-04-05T04:39:53.696Z,4.43
2019-04-05T04:42:20.738Z,4.10
2019-04-05T04:44:47.770Z,3.80
2019-04-05T04:47:25.764Z,3.50
2019-04-05T04:49:43.684Z,3.23
2019-04-05T04:52:10.750Z,3.60
2019-04-05T04:54:37.815Z,4.27
2019-04-05T04:57:04.800Z,3.80
2019-04-05T04:59:32.004Z,3.60
2019-04-05T05:01:59.052Z,3.50
2019-04-05T05:04:27.763Z,3.87
2019-04-05T05:06:54.873Z,3.47
2019-04-05T05:09:22.051Z,3.20
2019-04-05T05:11:49.111Z,4.57
2019-04-05T05:14:16.169Z,4.47
2019-04-05T05:16:43.233Z,3.77
2019-04-05T05:19:10.251Z,3.10
2019-04-05T05:21:37.315Z,4.07
2019-04-05T05:24:04.384Z,3.70
2019-04-05T05:26:31.444Z,3.13
2019-04-05T05:28:58.476Z,3.43
2019-04-05T05:31:25.520Z,6.30
2019-04-05T05:33:52.539Z,5.97
2019-04-05T05:36:19.634Z,5.50
2019-04-05T05:38:46.672Z,6.43
2019-04-05T05:41:13.690Z,6.37
2019-04-05T05:43:40.739Z,6.33
2019-04-05T05:46:07.791Z,6.27
2019-04-05T05:48:34.832Z,5.83
2019-04-05T05:51:01.853Z,4.93
2019-04-05T05:53:28.894Z,5.40
2019-04-05T05:55:55.967Z,5.83
2019-04-05T05:58:23.570Z,6.20
2019-04-05T06:00:52.030Z,5.10
2019-04-05T06:03:19.294Z,5.47
2019-04-05T06:05:46.363Z,4.90
2019-04-05T06:08:13.443Z,6.30
2019-04-05T06:10:40.660Z,6.10
2019-04-05T06:13:07.889Z,6.40
2019-04-05T06:15:37.378Z,5.67
2019-04-05T06:18:05.014Z,5.57
2019-04-05T06:20:32.293Z,5.33
2019-04-05T06:22:59.387Z,6.57
2019-04-05T06:25:26.457Z,5.60
2019-04-05T06:27:53.516Z,5.53
2019-04-05T06:30:20.582Z,6.87
2019-04-05T06:32:47.620Z,7.13
2019-04-05T06:35:14.685Z,7.00
2019-04-05T06:37:41.753Z,6.07
2019-04-05T06:40:09.269Z,6.57
2019-04-05T06:42:37.263Z,5.73
2019-04-05T06:45:04.432Z,6.20
2019-04-05T06:47:31.493Z,7.03
2019-04-05T06:49:58.513Z,5.13
2019-04-05T06:52:25.535Z,6.00
2019-04-05T06:54:52.689Z,6.37
2019-04-05T06:57:19.696Z,6.00
2019-04-05T06:59:46.724Z,5.70
2019-04-05T07:02:13.805Z,6.53
2019-04-05T07:04:40.824Z,5.70
2019-04-05T07:07:07.930Z,5.40
2019-04-05T07:09:34.941Z,5.30
2019-04-05T07:12:01.985Z,6.40
2019-04-05T07:14:29.038Z,6.00
2019-04-05T07:16:56.071Z,5.83
2019-04-05T07:19:23.145Z,5.60
2019-04-05T07:21:50.250Z,6.50
2019-04-05T07:24:17.250Z,7.13
2019-04-05T07:26:44.257Z,6.37
2019-04-05T07:29:11.311Z,5.90
2019-04-05T07:31:38.405Z,6.57
2019-04-05T07:34:05.426Z,6.10
2019-04-05T07:36:32.468Z,6.13
2019-04-05T07:38:59.537Z,5.77
2019-04-05T07:41:26.778Z,7.20
2019-04-05T07:43:53.854Z,5.80
2019-04-05T07:46:20.864Z,5.60
2019-04-05T07:48:47.988Z,5.20
2019-04-05T07:51:15.119Z,5.90
2019-04-05T07:53:42.222Z,6.70
2019-04-05T07:56:09.235Z,5.83
2019-04-05T07:58:36.235Z,5.87
2019-04-05T08:01:03.569Z,4.97
2019-04-05T08:03:30.723Z,6.87
2019-04-05T08:05:57.731Z,6.43
2019-04-05T08:08:46.457Z,5.67
2019-04-05T08:11:13.512Z,5.77
2019-04-05T08:13:40.681Z,6.10
2019-04-05T08:16:07.697Z,5.10
2019-04-05T08:18:34.718Z,6.13
2019-04-05T08:21:01.789Z,6.70
2019-04-05T08:23:28.866Z,5.10
2019-04-05T08:25:55.886Z,6.33
2019-04-05T08:28:23.004Z,5.40
2019-04-05T08:30:50.074Z,5.77
2019-04-05T08:33:17.122Z,5.53
2019-04-05T08:35:44.183Z,6.13
2019-04-05T08:38:11.220Z,6.30
2019-04-05T08:40:38.352Z,5.47
2019-04-05T08:43:05.408Z,5.20
2019-04-05T08:45:32.431Z,5.67
2019-04-05T08:47:59.570Z,6.43
2019-04-05T08:50:26.672Z,5.73
2019-04-05T08:52:53.698Z,5.10
2019-04-05T08:55:20.761Z,6.60
2019-04-05T08:57:48.169Z,6.40
2019-04-05T09:00:15.396Z,6.27
2019-04-05T09:02:42.517Z,5.83
2019-04-05T09:05:09.657Z,5.80
2019-04-05T09:07:36.732Z,6.60
2019-04-05T09:10:03.793Z,6.90
2019-04-05T09:12:30.855Z,6.83
2019-04-05T09:14:57.908Z,5.83
2019-04-05T09:17:24.994Z,4.43
2019-04-05T09:19:54.037Z,5.90
2019-04-05T09:22:20.923Z,6.30
2019-04-05T09:24:47.962Z,5.30
2019-04-05T09:27:15.017Z,6.37
2019-04-05T09:29:42.083Z,5.40
2019-04-05T09:32:09.128Z,6.97
2019-04-05T09:34:36.280Z,5.50
2019-04-05T09:37:04.462Z,5.50
2019-04-05T09:39:31.581Z,6.17
2019-04-05T09:41:58.623Z,5.60
2019-04-05T09:44:25.757Z,5.23
2019-04-05T09:46:52.912Z,5.63
2019-04-05T09:49:19.943Z,7.00
2019-04-05T09:51:46.962Z,5.17
2019-04-05T09:54:14.056Z,5.70
2019-04-05T09:56:41.083Z,5.83
2019-04-05T09:59:08.127Z,6.00
2019-04-05T10:01:35.225Z,5.40
2019-04-05T10:04:02.300Z,5.20
2019-04-05T10:06:29.375Z,6.73
2019-04-05T10:08:56.574Z,6.27
2019-04-05T10:11:23.615Z,6.00
2019-04-05T10:13:50.621Z,5.57
2019-04-05T10:16:17.684Z,6.00
2019-04-05T10:18:44.745Z,6.40
2019-04-05T10:21:11.844Z,6.00
2019-04-05T10:23:39.452Z,4.93
2019-04-05T10:26:06.582Z,6.43
2019-04-05T10:28:33.630Z,6.50
2019-04-05T10:31:00.620Z,6.37
2019-04-05T10:33:27.660Z,6.17
2019-04-05T10:35:54.677Z,6.40
2019-04-05T10:38:21.741Z,7.23
2019-04-05T10:40:48.770Z,6.20
2019-04-05T10:43:15.840Z,5.97
2019-04-05T10:45:42.976Z,6.80
2019-04-05T10:48:10.013Z,6.20
2019-04-05T10:50:37.133Z,5.97
2019-04-05T10:53:04.171Z,5.30
2019-04-05T10:55:31.191Z,6.10
2019-04-05T10:57:58.380Z,5.90
2019-04-05T11:00:25.411Z,6.70
2019-04-05T11:02:52.513Z,6.63
2019-04-05T11:05:19.581Z,7.10
2019-04-05T11:07:46.662Z,6.30
2019-04-05T11:10:14.189Z,6.70
2019-04-05T11:12:41.250Z,6.70
2019-04-05T11:15:08.271Z,6.80
2019-04-05T11:17:35.364Z,7.10
2019-04-05T11:20:06.985Z,7.87
2019-04-05T11:22:31.356Z,6.60
2019-04-05T11:24:58.507Z,6.90
2019-04-05T11:27:25.552Z,6.97
2019-04-05T11:29:52.570Z,7.10
2019-04-05T11:32:19.672Z,6.47
2019-04-05T11:34:46.731Z,6.77
2019-04-05T11:37:13.743Z,6.60
2019-04-05T11:39:40.863Z,5.60
2019-04-05T11:42:07.897Z,6.70
2019-04-05T11:44:34.942Z,7.10
2019-04-05T11:47:02.626Z,7.30
2019-04-05T11:49:29.689Z,6.73
2019-04-05T11:51:56.753Z,5.90
2019-04-05T11:54:23.837Z,6.47
2019-04-05T11:56:50.887Z,6.10
2019-04-05T11:59:17.940Z,7.10
2019-04-05T12:01:49.794Z,6.03
2019-04-05T12:04:16.884Z,6.53
2019-04-05T12:06:44.019Z,6.60
2019-04-05T12:09:11.044Z,6.60
2019-04-05T12:11:38.070Z,7.20
2019-04-05T12:14:05.143Z,8.77
2019-04-05T12:16:32.280Z,6.77
2019-04-05T12:18:59.596Z,6.93
2019-04-05T12:21:26.615Z,7.00
2019-04-05T12:23:53.760Z,6.40
2019-04-05T12:26:20.911Z,7.97
2019-04-05T12:28:47.953Z,8.50
2019-04-05T12:31:15.770Z,9.73
2019-04-05T12:33:43.216Z,8.80
2019-04-05T12:36:10.309Z,8.93
2019-04-05T12:38:37.381Z,8.67
2019-04-05T12:41:04.451Z,9.57
2019-04-05T12:43:31.824Z,9.40
2019-04-05T12:45:58.973Z,9.17
2019-04-05T12:48:25.992Z,9.20
2019-04-05T12:51:01.074Z,9.30
2019-04-05T12:53:21.986Z,8.20
2019-04-05T12:55:49.008Z,8.50
2019-04-05T12:58:16.061Z,8.70
2019-04-05T13:00:43.155Z,8.63
2019-04-05T13:03:10.346Z,8.10
2019-04-05T13:05:37.347Z,8.90
2019-04-05T13:08:04.375Z,8.60
2019-04-05T13:10:31.433Z,9.07
2019-04-05T13:12:58.426Z,9.50
2019-04-05T13:15:25.481Z,9.07
2019-04-05T13:17:52.496Z,8.20
2019-04-05T13:20:19.549Z,7.43
2019-04-05T13:22:46.617Z,8.87
2019-04-05T13:25:13.674Z,8.17
2019-04-05T13:27:41.540Z,8.33
2019-04-05T13:30:09.236Z,8.00
2019-04-05T13:32:36.302Z,7.33
2019-04-05T13:35:03.356Z,7.37
2019-04-05T13:37:30.874Z,8.50
2019-04-05T13:40:00.061Z,7.87
2019-04-05T13:42:27.385Z,7.33
2019-04-05T13:44:54.428Z,8.10
2019-04-05T13:47:21.449Z,7.97
2019-04-05T13:49:48.534Z,7.50
2019-04-05T13:52:15.561Z,9.90
2019-04-05T13:54:42.603Z,7.30
2019-04-05T13:57:11.416Z,7.73
2019-04-05T13:59:38.498Z,7.97
2019-04-05T14:02:06.525Z,7.80
2019-04-05T14:04:33.827Z,7.17
2019-04-05T14:07:03.491Z,7.53
2019-04-05T14:09:31.622Z,7.83
2019-04-05T14:11:58.844Z,7.80
2019-04-05T14:14:28.306Z,8.03
2019-04-05T14:16:54.745Z,7.57
2019-04-05T14:19:21.818Z,7.30
2019-04-05T14:21:52.780Z,7.40
2019-04-05T14:24:17.841Z,7.90
2019-04-05T14:26:44.871Z,6.73
2019-04-05T14:29:11.883Z,7.60
2019-04-05T14:31:38.957Z,7.00
2019-04-05T14:34:05.976Z,7.50
2019-04-05T14:36:32.973Z,7.60
2019-04-05T14:39:00.026Z,7.43
2019-04-05T14:41:27.106Z,7.10
2019-04-05T14:43:54.140Z,6.57
2019-04-05T14:46:21.259Z,7.07
2019-04-05T14:48:48.309Z,7.40
2019-04-05T14:51:15.326Z,7.53
2019-04-05T14:53:42.344Z,7.77
2019-04-05T14:56:09.404Z,7.43
2019-04-05T14:58:36.442Z,7.27
2019-04-05T15:01:03.823Z,7.50
2019-04-05T15:03:30.888Z,6.83
2019-04-05T15:05:57.900Z,6.77
2019-04-05T15:08:24.945Z,6.33
2019-04-05T15:10:51.959Z,6.80
2019-04-05T15:13:18.996Z,7.27
2019-04-05T15:15:46.076Z,6.73
2019-04-05T15:18:13.158Z,7.43
2019-04-05T15:20:40.191Z,6.67
2019-04-05T15:23:09.455Z,6.43
2019-04-05T15:25:36.032Z,6.67
2019-04-05T15:28:03.055Z,6.80
2019-04-05T15:30:30.102Z,6.53
2019-04-05T15:32:58.765Z,7.20
2019-04-05T15:35:26.486Z,6.97
2019-04-05T15:37:54.717Z,6.20
2019-04-05T15:40:21.753Z,7.50
2019-04-05T15:42:48.910Z,6.00
2019-04-05T15:45:16.630Z,6.40
2019-04-05T15:47:43.815Z,7.03
2019-04-05T15:50:10.931Z,6.70
2019-04-05T15:52:37.976Z,6.93
2019-04-05T15:55:05.061Z,8.43
2019-04-05T15:57:34.242Z,7.00
2019-04-05T16:00:03.810Z,6.80
2019-04-05T16:02:33.018Z,7.20
2019-04-05T16:04:58.678Z,6.73
2019-04-05T16:07:25.714Z,6.40
2019-04-05T16:09:52.984Z,7.17
2019-04-05T16:12:19.997Z,7.50
2019-04-05T16:14:47.068Z,6.73
2019-04-05T16:17:14.153Z,7.47
2019-04-05T16:19:41.183Z,6.33
2019-04-05T16:22:08.193Z,7.50
2019-04-05T16:24:35.294Z,7.50
2019-04-05T16:27:02.316Z,6.73
2019-04-05T16:29:29.332Z,7.27
2019-04-05T16:31:56.408Z,6.47
2019-04-05T16:34:23.431Z,7.20
2019-04-05T16:36:50.475Z,6.80
2019-04-05T16:39:19.079Z,7.90
2019-04-05T16:41:46.103Z,7.80
2019-04-05T16:44:13.253Z,7.23
2019-04-05T16:46:40.284Z,7.33
2019-04-05T16:49:07.396Z,7.07
2019-04-05T16:51:34.457Z,6.20
2019-04-05T16:54:02.589Z,7.40
2019-04-05T16:56:29.834Z,6.87
2019-04-05T16:58:56.895Z,7.40
2019-04-05T17:01:27.151Z,7.30
2019-04-05T17:03:52.937Z,7.30
2019-04-05T17:06:19.949Z,6.50
2019-04-05T17:08:46.985Z,6.80
2019-04-05T17:11:14.177Z,6.20
2019-04-05T17:13:41.197Z,6.27
2019-04-05T17:16:08.215Z,6.03
2019-04-05T17:18:35.274Z,6.53
2019-04-05T17:21:02.273Z,6.00
2019-04-05T17:23:29.454Z,6.60
2019-04-05T17:25:56.575Z,7.57
2019-04-05T17:28:23.622Z,7.00
2019-04-05T17:30:50.641Z,6.70
2019-04-05T17:33:17.686Z,6.67
2019-04-05T17:35:44.704Z,6.33
2019-04-05T17:38:11.801Z,7.00
2019-04-05T17:40:38.806Z,5.80
2019-04-05T17:43:05.835Z,6.37
2019-04-05T17:45:32.884Z,6.50
2019-04-05T17:48:00.078Z,6.97
2019-04-05T17:50:31.474Z,6.83
2019-04-05T17:53:11.417Z,6.07
2019-04-05T17:55:27.351Z,6.87
2019-04-05T17:57:54.381Z,7.03
2019-04-05T18:00:23.195Z,6.20
2019-04-05T18:02:50.254Z,6.37
2019-04-05T18:05:17.338Z,6.33
2019-04-05T18:07:44.340Z,7.23
2019-04-05T18:10:11.378Z,6.70
2019-04-05T18:12:38.426Z,6.30
2019-04-05T18:15:05.672Z,6.30
2019-04-05T18:17:32.780Z,6.10
2019-04-05T18:19:59.788Z,6.80
2019-04-05T18:22:26.814Z,6.57
2019-04-05T18:24:53.855Z,6.37
2019-04-05T18:27:21.028Z,6.30
2019-04-05T18:29:48.033Z,6.30
2019-04-05T18:32:15.056Z,6.73
2019-04-05T18:34:42.128Z,6.70
2019-04-05T18:37:09.141Z,6.50
2019-04-05T18:39:36.176Z,5.80
2019-04-05T18:42:03.800Z,6.60
2019-04-05T18:44:30.870Z,6.00
2019-04-05T18:46:57.884Z,7.00
2019-04-05T18:49:24.947Z,6.40
2019-04-05T18:51:51.947Z,5.90
2019-04-05T18:54:18.959Z,5.47
2019-04-05T18:56:46.207Z,5.87
2019-04-05T18:59:13.241Z,5.73
2019-04-05T19:01:40.250Z,6.40
2019-04-05T19:04:07.335Z,6.63
2019-04-05T19:06:34.371Z,6.57
2019-04-05T19:09:01.380Z,5.77
2019-04-05T19:11:28.431Z,6.70
2019-04-05T19:14:01.350Z,5.77
2019-04-05T19:16:24.323Z,5.93
2019-04-05T19:18:51.361Z,6.13
2019-04-05T19:21:18.388Z,5.60
2019-04-05T19:23:51.185Z,6.00
2019-04-05T19:26:14.282Z,5.90
2019-04-05T19:28:41.304Z,6.30
2019-04-05T19:48:31.061Z,6.00
2019-04-05T19:50:58.359Z,5.93
2019-04-05T19:53:25.361Z,6.80
2019-04-05T19:55:52.420Z,5.43
2019-04-05T19:58:19.500Z,6.17
2019-04-05T20:00:46.651Z,6.17
2019-04-05T20:03:13.746Z,5.30
2019-04-05T20:05:40.924Z,5.40
2019-04-05T20:08:07.979Z,6.00
2019-04-05T20:10:35.008Z,6.10
2019-04-05T20:13:02.065Z,5.83
2019-04-05T20:15:29.085Z,5.53
2019-04-05T20:17:56.175Z,6.20
2019-04-05T20:20:23.231Z,5.80
2019-04-05T20:22:50.264Z,5.27
2019-04-05T20:25:17.330Z,5.43
2019-04-05T20:27:44.376Z,5.97
2019-04-05T20:30:11.433Z,6.27
2019-04-05T20:32:38.469Z,5.30
2019-04-05T20:35:05.505Z,5.37
2019-04-05T20:37:32.555Z,5.70
2019-04-05T20:39:59.633Z,5.33
2019-04-05T20:42:26.658Z,5.50
2019-04-05T20:44:53.725Z,5.93
2019-04-05T20:47:20.779Z,5.43
2019-04-05T20:49:48.094Z,6.17
2019-04-05T20:52:15.125Z,5.43
2019-04-05T20:54:42.162Z,5.37
2019-04-05T20:57:09.220Z,5.77
2019-04-05T20:59:36.264Z,4.77
2019-04-05T21:02:03.525Z,5.70
2019-04-05T21:04:30.574Z,5.87
2019-04-05T21:06:57.618Z,5.40
2019-04-05T21:09:24.678Z,5.97
2019-04-05T21:11:51.709Z,6.07
2019-04-05T21:14:18.798Z,5.10
2019-04-05T21:16:45.842Z,5.53
2019-04-05T21:19:12.916Z,5.80
2019-04-05T21:21:39.966Z,4.83
2019-04-05T21:24:06.996Z,5.43
2019-04-05T21:26:34.060Z,5.13
2019-04-05T21:29:01.156Z,5.53
2019-04-05T21:31:28.202Z,5.17
2019-04-05T21:33:55.235Z,5.37
2019-04-05T21:36:22.319Z,5.50
2019-04-05T21:38:49.332Z,5.07
2019-04-05T21:41:16.505Z,4.97
2019-04-05T21:43:43.527Z,5.77
2019-04-05T21:46:10.554Z,4.87
2019-04-05T21:48:37.612Z,5.27
2019-04-05T21:51:04.610Z,6.03
2019-04-05T21:53:31.763Z,5.50
2019-04-05T21:55:58.784Z,5.40
2019-04-05T21:58:26.002Z,4.87
2019-04-05T22:01:01.471Z,5.33
2019-04-05T22:03:28.734Z,5.30
2019-04-05T22:05:55.773Z,5.40
2019-04-05T22:08:22.816Z,5.17
2019-04-05T22:10:49.806Z,4.23
2019-04-05T22:13:16.887Z,4.43
2019-04-05T22:15:43.910Z,4.90
2019-04-05T22:18:10.945Z,4.90
2019-04-05T22:20:38.114Z,6.00
2019-04-05T22:23:05.134Z,5.20
2019-04-05T22:25:32.157Z,4.83
2019-04-05T22:27:59.266Z,4.80
2019-04-05T22:30:26.278Z,5.10
2019-04-05T22:32:53.308Z,4.90
2019-04-05T22:35:20.352Z,4.47
2019-04-05T22:37:47.375Z,5.63
2019-04-05T22:40:14.419Z,5.33
2019-04-05T22:42:41.458Z,5.30
2019-04-05T22:45:08.526Z,4.67
2019-04-05T22:47:35.580Z,5.00
2019-04-05T22:50:02.657Z,4.60
2019-04-05T22:52:29.693Z,4.43
2019-04-05T22:54:56.805Z,5.20
2019-04-05T22:57:23.817Z,5.30
2019-04-05T22:59:50.849Z,4.37
2019-04-05T23:02:17.908Z,4.80
2019-04-05T23:04:44.948Z,4.73
2019-04-05T23:07:12.025Z,5.33
2019-04-05T23:09:39.073Z,4.67
2019-04-05T23:12:06.091Z,4.80
2019-04-05T23:14:33.149Z,4.87
2019-04-05T23:17:00.158Z,4.93
2019-04-05T23:19:27.177Z,4.67
2019-04-05T23:21:54.321Z,4.60
2019-04-05T23:24:21.401Z,4.83
2019-04-05T23:26:48.476Z,5.10
2019-04-05T23:29:15.499Z,5.17
2019-04-05T23:31:42.593Z,4.97
2019-04-05T23:34:09.776Z,5.20
2019-04-05T23:36:36.803Z,5.10
2019-04-05T23:39:04.805Z,5.03
2019-04-05T23:41:31.895Z,4.70
2019-04-05T23:43:58.954Z,4.70
2019-04-05T23:46:26.011Z,4.93
2019-04-05T23:48:53.074Z,4.30
2019-04-05T23:51:20.090Z,4.80
2019-04-05T23:53:47.153Z,5.10
2019-04-05T23:56:14.270Z,4.50
2019-04-05T23:58:41.366Z,5.00
